Hutchinson County Airport - Borger, Texas, United States - FAA: BGD - ICAO: KBGD - IATA: BGD

 
  Longest Runway: 6,300 feet   Approach Types:    Customs Landing Rights Airport: No   Port of Entry: No

Local Forecast

Tonight (6/23): A 20 percent chance of showers and thunderstorms. Mostly cloudy, with a low around 59. Northeast wind 10 to 15 mph.

Saturday (6/24): Partly sunny, with a high near 74. Southeast wind 5 to 10 mph.

Saturday Night (6/24): A 40 percent chance of showers and thunderstorms. Mostly cloudy, with a low around 59. South southeast wind around 10 mph.

Sunday (6/25): A 40 percent chance of showers and thunderstorms. Mostly cloudy, with a high near 78. South southeast wind 5 to 10 mph.

Sunday Night (6/25): A 50 percent chance of showers and thunderstorms. Mostly cloudy, with a low around 62. South southeast wind around 10 mph.

Monday (6/26): A 40 percent chance of showers and thunderstorms, mainly before 1pm. Partly sunny, with a high near 84. South wind 5 to 10 mph.

Monday Night (6/26): A 30 percent chance of showers and thunderstorms, mainly before 1am. Mostly cloudy, with a low around 64. South wind 10 to 15 mph.



Current Weather (METAR)

2017/06/24 00:51 KBGD 240051Z AUTO 04015G21KT 10SM CLR 26/11 A3008 RMK AO2 SLP144 T02560111

BORGER HUTCHINSON CO AIRPORT , TX, United States (KBGD) 35-42N 101-24W 927M Jun 23, 2017 - 08:51 PM EDT / 2017.06.24 0051 UTC Wind: from the NE (040 degrees) at 17 MPH (15 KT) gusting to 24 MPH (21 KT):0 Visibility: 10 mile(s):0 Sky conditions: clear Temperature: 78.1 F (25.6 C) Dew Point: 52.0 F (11.1 C) Relative Humidity: 40% Pressure (altimeter): 30.08 in. Hg (1018 hPa) ob: KBGD 240051Z AUTO 04015G21KT 10SM CLR 26/11 A3008 RMK AO2 SLP144 T02560111 cycle: 1

Terminal Forecast (TAF)